PWSweather.com
Personal Weather Stations
Station Observations
NAPERVILLE
North Naperville, Naperville, IL 60563

North NapervilleNaperville, IL 60563

Lat: 41.79, Lon: -88.12

Elevation: 771

Station Type:

http://napervilleweather.com

High Low Average
Temperature 31.8°F-0.1°C 24.3°F-4.3°C 28.1°F-2.2°C
Dew Point 27.8°F-2.3°C 18.4°F-7.6°C 23.4°F-4.8°C
Winds 3.0 mph 4.8 kmh Calm Calm 1.0 mph SW1.6 kmh SW
Wind Gusts 12.0 mph19.3 kmh 1.0 mph1.6 kmh 4.0 mph6.4 kmh
Humidity 92% 74% 82%
Pressure 30.22 in1023.4 mb 30.14 in1020.7 mb -
Precipitation 0.00 in0.0 mm - -
Hour Temp Dew Point Humidity Winds Wind Gusts Pressure Precip Precip Rate Daily Precip Total
12:00 AM 27.6°F-2.4°C 25.1°F-3.8°C 90% 1.0 mph W1.6 kmh W 4.0 mph6.4 kmh 30.15 in1021.0 mb 0.00 in0.0 mm 0.00 in0.0 mm 0.00 in0.0 mm
12:15 AM 27.5°F-2.5°C 25.0°F-3.9°C 90% 1.0 mph W1.6 kmh W 2.0 mph3.2 kmh 30.14 in1020.7 mb 0.00 in0.0 mm 0.00 in0.0 mm 0.00 in0.0 mm
12:30 AM 27.2°F-2.7°C 24.7°F-4.1°C 90% 1.0 mph WNW1.6 kmh WNW 3.0 mph4.8 kmh 30.14 in1020.7 mb 0.00 in0.0 mm 0.00 in0.0 mm 0.00 in0.0 mm
12:45 AM 27.2°F-2.7°C 24.9°F-3.9°C 91% 1.0 mph W1.6 kmh W 5.0 mph8.0 kmh 30.14 in1020.7 mb 0.00 in0.0 mm 0.00 in0.0 mm 0.00 in0.0 mm
01:00 AM 27.0°F-2.8°C 24.5°F-4.2°C 90% 2.0 mph W3.2 kmh W 4.0 mph6.4 kmh 30.14 in1020.7 mb 0.00 in0.0 mm 0.00 in0.0 mm 0.00 in0.0 mm
01:15 AM 26.7°F-2.9°C 23.6°F-4.7°C 88% 2.0 mph WSW3.2 kmh WSW 6.0 mph9.7 kmh 30.14 in1020.7 mb 0.00 in0.0 mm 0.00 in0.0 mm 0.00 in0.0 mm
01:30 AM 26.7°F-2.9°C 23.4°F-4.8°C 87% 2.0 mph WSW3.2 kmh WSW 8.0 mph12.9 kmh 30.15 in1021.0 mb 0.00 in0.0 mm 0.00 in0.0 mm 0.00 in0.0 mm
01:45 AM 26.8°F-2.9°C 23.4°F-4.8°C 87% 2.0 mph WNW3.2 kmh WNW 6.0 mph9.7 kmh 30.15 in1021.0 mb 0.00 in0.0 mm 0.00 in0.0 mm 0.00 in0.0 mm
02:00 AM 26.8°F-2.9°C 23.7°F-4.6°C 88% 1.0 mph WSW1.6 kmh WSW 3.0 mph4.8 kmh 30.15 in1021.0 mb 0.00 in0.0 mm 0.00 in0.0 mm 0.00 in0.0 mm
02:15 AM 26.7°F-2.9°C 23.6°F-4.7°C 88% 1.0 mph WSW1.6 kmh WSW 5.0 mph8.0 kmh 30.15 in1021.0 mb 0.00 in0.0 mm 0.00 in0.0 mm 0.00 in0.0 mm
02:30 AM 26.3°F-3.2°C 23.0°F-5.0°C 87% 1.0 mph SW1.6 kmh SW 5.0 mph8.0 kmh 30.15 in1021.0 mb 0.00 in0.0 mm 0.00 in0.0 mm 0.00 in0.0 mm
02:45 AM 26.1°F-3.3°C 22.5°F-5.3°C 86% 1.0 mph SW1.6 kmh SW 5.0 mph8.0 kmh 30.15 in1021.0 mb 0.00 in0.0 mm 0.00 in0.0 mm 0.00 in0.0 mm
03:00 AM 25.8°F-3.4°C 21.9°F-5.6°C 85% 2.0 mph W3.2 kmh W 9.0 mph14.5 kmh 30.16 in1021.3 mb 0.00 in0.0 mm 0.00 in0.0 mm 0.00 in0.0 mm
03:15 AM 25.5°F-3.6°C 21.6°F-5.8°C 85% 2.0 mph WSW3.2 kmh WSW 8.0 mph12.9 kmh 30.16 in1021.3 mb 0.00 in0.0 mm 0.00 in0.0 mm 0.00 in0.0 mm
03:30 AM 25.2°F-3.8°C 21.0°F-6.1°C 84% 2.0 mph WSW3.2 kmh WSW 6.0 mph9.7 kmh 30.16 in1021.3 mb 0.00 in0.0 mm 0.00 in0.0 mm 0.00 in0.0 mm
03:45 AM 25.1°F-3.8°C 20.9°F-6.2°C 84% 2.0 mph W3.2 kmh W 7.0 mph11.3 kmh 30.16 in1021.3 mb 0.00 in0.0 mm 0.00 in0.0 mm 0.00 in0.0 mm
04:00 AM 25.0°F-3.9°C 21.1°F-6.1°C 85% 2.0 mph SW3.2 kmh SW 5.0 mph8.0 kmh 30.16 in1021.3 mb 0.00 in0.0 mm 0.00 in0.0 mm 0.00 in0.0 mm
04:15 AM 24.9°F-3.9°C 21.6°F-5.8°C 87% 2.0 mph W3.2 kmh W 7.0 mph11.3 kmh 30.16 in1021.3 mb 0.00 in0.0 mm 0.00 in0.0 mm 0.00 in0.0 mm
04:30 AM 24.8°F-4.0°C 21.2°F-6.0°C 86% 2.0 mph SW3.2 kmh SW 9.0 mph14.5 kmh 30.16 in1021.3 mb 0.00 in0.0 mm 0.00 in0.0 mm 0.00 in0.0 mm
04:45 AM 24.8°F-4.0°C 20.9°F-6.2°C 85% 2.0 mph W3.2 kmh W 7.0 mph11.3 kmh 30.16 in1021.3 mb 0.00 in0.0 mm 0.00 in0.0 mm 0.00 in0.0 mm
05:00 AM 24.8°F-4.0°C 20.9°F-6.2°C 85% 2.0 mph W3.2 kmh W 9.0 mph14.5 kmh 30.16 in1021.3 mb 0.00 in0.0 mm 0.00 in0.0 mm 0.00 in0.0 mm
05:15 AM 24.7°F-4.1°C 20.8°F-6.2°C 85% 2.0 mph W3.2 kmh W 7.0 mph11.3 kmh 30.16 in1021.3 mb 0.00 in0.0 mm 0.00 in0.0 mm 0.00 in0.0 mm
05:30 AM 24.8°F-4.0°C 20.9°F-6.2°C 85% 1.0 mph WSW1.6 kmh WSW 5.0 mph8.0 kmh 30.16 in1021.3 mb 0.00 in0.0 mm 0.00 in0.0 mm 0.00 in0.0 mm
05:45 AM 24.9°F-3.9°C 20.8°F-6.2°C 84% 2.0 mph W3.2 kmh W 7.0 mph11.3 kmh 30.16 in1021.3 mb 0.00 in0.0 mm 0.00 in0.0 mm 0.00 in0.0 mm
06:00 AM 25.0°F-3.9°C 20.8°F-6.2°C 84% 2.0 mph W3.2 kmh W 4.0 mph6.4 kmh 30.16 in1021.3 mb 0.00 in0.0 mm 0.00 in0.0 mm 0.00 in0.0 mm
06:15 AM 25.2°F-3.8°C 21.3°F-5.9°C 85% 2.0 mph WSW3.2 kmh WSW 5.0 mph8.0 kmh 30.17 in1021.7 mb 0.00 in0.0 mm 0.00 in0.0 mm 0.00 in0.0 mm
06:30 AM 25.3°F-3.7°C 21.4°F-5.9°C 85% 1.0 mph WSW1.6 kmh WSW 4.0 mph6.4 kmh 30.17 in1021.7 mb 0.00 in0.0 mm 0.00 in0.0 mm 0.00 in0.0 mm
06:45 AM 25.1°F-3.8°C 20.4°F-6.4°C 82% 1.0 mph WSW1.6 kmh WSW 7.0 mph11.3 kmh 30.18 in1022.0 mb 0.00 in0.0 mm 0.00 in0.0 mm 0.00 in0.0 mm
07:00 AM 24.7°F-4.1°C 19.1°F-7.2°C 79% 1.0 mph WSW1.6 kmh WSW 4.0 mph6.4 kmh 30.18 in1022.0 mb 0.00 in0.0 mm 0.00 in0.0 mm 0.00 in0.0 mm
07:15 AM 24.5°F-4.2°C 18.6°F-7.4°C 78% 1.0 mph SW1.6 kmh SW 3.0 mph4.8 kmh 30.18 in1022.0 mb 0.00 in0.0 mm 0.00 in0.0 mm 0.00 in0.0 mm
07:30 AM 24.4°F-4.2°C 18.8°F-7.3°C 79% 1.0 mph WSW1.6 kmh WSW 2.0 mph3.2 kmh 30.19 in1022.4 mb 0.00 in0.0 mm 0.00 in0.0 mm 0.00 in0.0 mm
07:45 AM 24.4°F-4.2°C 18.5°F-7.5°C 78% 2.0 mph WSW3.2 kmh WSW 5.0 mph8.0 kmh 30.19 in1022.4 mb 0.00 in0.0 mm 0.00 in0.0 mm 0.00 in0.0 mm
08:00 AM 24.5°F-4.2°C 18.9°F-7.3°C 79% 2.0 mph WSW3.2 kmh WSW 4.0 mph6.4 kmh 30.19 in1022.4 mb 0.00 in0.0 mm 0.00 in0.0 mm 0.00 in0.0 mm
08:15 AM 24.6°F-4.1°C 19.3°F-7.1°C 80% 2.0 mph WSW3.2 kmh WSW 6.0 mph9.7 kmh 30.20 in1022.7 mb 0.00 in0.0 mm 0.00 in0.0 mm 0.00 in0.0 mm
08:30 AM 24.5°F-4.2°C 18.9°F-7.3°C 79% 3.0 mph W4.8 kmh W 12.0 mph19.3 kmh 30.20 in1022.7 mb 0.00 in0.0 mm 0.00 in0.0 mm 0.00 in0.0 mm
08:45 AM 24.3°F-4.3°C 18.4°F-7.6°C 78% 3.0 mph W4.8 kmh W 7.0 mph11.3 kmh 30.20 in1022.7 mb 0.00 in0.0 mm 0.00 in0.0 mm 0.00 in0.0 mm
09:00 AM 24.4°F-4.2°C 18.5°F-7.5°C 78% 3.0 mph W4.8 kmh W 6.0 mph9.7 kmh 30.20 in1022.7 mb 0.00 in0.0 mm 0.00 in0.0 mm 0.00 in0.0 mm
09:15 AM 24.7°F-4.1°C 19.1°F-7.2°C 79% 2.0 mph WSW3.2 kmh WSW 7.0 mph11.3 kmh 30.21 in1023.0 mb 0.00 in0.0 mm 0.00 in0.0 mm 0.00 in0.0 mm
09:30 AM 24.9°F-3.9°C 18.7°F-7.4°C 77% 3.0 mph W4.8 kmh W 8.0 mph12.9 kmh 30.22 in1023.4 mb 0.00 in0.0 mm 0.00 in0.0 mm 0.00 in0.0 mm
09:45 AM 25.3°F-3.7°C 18.8°F-7.3°C 76% 2.0 mph W3.2 kmh W 4.0 mph6.4 kmh 30.22 in1023.4 mb 0.00 in0.0 mm 0.00 in0.0 mm 0.00 in0.0 mm
10:00 AM 25.5°F-3.6°C 19.0°F-7.2°C 76% 2.0 mph W3.2 kmh W 6.0 mph9.7 kmh 30.22 in1023.4 mb 0.00 in0.0 mm 0.00 in0.0 mm 0.00 in0.0 mm
10:15 AM 25.8°F-3.4°C 19.3°F-7.1°C 76% 2.0 mph WSW3.2 kmh WSW 5.0 mph8.0 kmh 30.21 in1023.0 mb 0.00 in0.0 mm 0.00 in0.0 mm 0.00 in0.0 mm
10:30 AM 26.3°F-3.2°C 19.1°F-7.2°C 74% 2.0 mph WNW3.2 kmh WNW 10.0 mph16.1 kmh 30.22 in1023.4 mb 0.00 in0.0 mm 0.00 in0.0 mm 0.00 in0.0 mm
10:45 AM 26.6°F-3.0°C 19.4°F-7.0°C 74% 3.0 mph W4.8 kmh W 7.0 mph11.3 kmh 30.22 in1023.4 mb 0.00 in0.0 mm 0.00 in0.0 mm 0.00 in0.0 mm
11:00 AM 27.0°F-2.8°C 20.1°F-6.6°C 75% 1.0 mph WSW1.6 kmh WSW 5.0 mph8.0 kmh 30.21 in1023.0 mb 0.00 in0.0 mm 0.00 in0.0 mm 0.00 in0.0 mm
11:15 AM 27.3°F-2.6°C 20.1°F-6.6°C 74% 2.0 mph W3.2 kmh W 4.0 mph6.4 kmh 30.21 in1023.0 mb 0.00 in0.0 mm 0.00 in0.0 mm 0.00 in0.0 mm
11:30 AM 27.7°F-2.4°C 21.1°F-6.1°C 76% 1.0 mph SW1.6 kmh SW 3.0 mph4.8 kmh 30.20 in1022.7 mb 0.00 in0.0 mm 0.00 in0.0 mm 0.00 in0.0 mm
11:45 AM 27.9°F-2.3°C 21.3°F-5.9°C 76% 1.0 mph SW1.6 kmh SW 3.0 mph4.8 kmh 30.20 in1022.7 mb 0.00 in0.0 mm 0.00 in0.0 mm 0.00 in0.0 mm
12:00 PM 28.1°F-2.2°C 21.5°F-5.8°C 76% 1.0 mph SW1.6 kmh SW 3.0 mph4.8 kmh 30.20 in1022.7 mb 0.00 in0.0 mm 0.00 in0.0 mm 0.00 in0.0 mm
12:15 PM 28.3°F-2.1°C 21.4°F-5.9°C 75% 2.0 mph SW3.2 kmh SW 5.0 mph8.0 kmh 30.20 in1022.7 mb 0.00 in0.0 mm 0.00 in0.0 mm 0.00 in0.0 mm
12:30 PM 28.5°F-1.9°C 21.6°F-5.8°C 75% 2.0 mph SW3.2 kmh SW 7.0 mph11.3 kmh 30.20 in1022.7 mb 0.00 in0.0 mm 0.00 in0.0 mm 0.00 in0.0 mm
12:45 PM 28.5°F-1.9°C 22.2°F-5.4°C 77% 2.0 mph SW3.2 kmh SW 3.0 mph4.8 kmh 30.20 in1022.7 mb 0.00 in0.0 mm 0.00 in0.0 mm 0.00 in0.0 mm
01:00 PM 28.7°F-1.8°C 22.4°F-5.3°C 77% 2.0 mph WSW3.2 kmh WSW 6.0 mph9.7 kmh 30.19 in1022.4 mb 0.00 in0.0 mm 0.00 in0.0 mm 0.00 in0.0 mm
01:15 PM 29.0°F-1.7°C 22.7°F-5.2°C 77% 1.0 mph WSW1.6 kmh WSW 3.0 mph4.8 kmh 30.20 in1022.7 mb 0.00 in0.0 mm 0.00 in0.0 mm 0.00 in0.0 mm
01:30 PM 29.5°F-1.4°C 22.9°F-5.1°C 76% 1.0 mph SSW1.6 kmh SSW 3.0 mph4.8 kmh 30.19 in1022.4 mb 0.00 in0.0 mm 0.00 in0.0 mm 0.00 in0.0 mm
01:45 PM 30.2°F-1.0°C 23.2°F-4.9°C 75% 1.0 mph SSW1.6 kmh SSW 2.0 mph3.2 kmh 30.19 in1022.4 mb 0.00 in0.0 mm 0.00 in0.0 mm 0.00 in0.0 mm
02:00 PM 30.3°F-0.9°C 23.3°F-4.8°C 75% 2.0 mph SSW3.2 kmh SSW 3.0 mph4.8 kmh 30.19 in1022.4 mb 0.00 in0.0 mm 0.00 in0.0 mm 0.00 in0.0 mm
02:15 PM 30.7°F-0.7°C 24.0°F-4.4°C 76% 1.0 mph SSE1.6 kmh SSE 5.0 mph8.0 kmh 30.18 in1022.0 mb 0.00 in0.0 mm 0.00 in0.0 mm 0.00 in0.0 mm
02:30 PM 31.2°F-0.4°C 24.5°F-4.2°C 76% 1.0 mph S1.6 kmh S 2.0 mph3.2 kmh 30.19 in1022.4 mb 0.00 in0.0 mm 0.00 in0.0 mm 0.00 in0.0 mm
02:45 PM 31.2°F-0.4°C 24.2°F-4.3°C 75% 1.0 mph S1.6 kmh S 3.0 mph4.8 kmh 30.18 in1022.0 mb 0.00 in0.0 mm 0.00 in0.0 mm 0.00 in0.0 mm
03:00 PM 31.4°F-0.3°C 24.1°F-4.4°C 74% 2.0 mph SW3.2 kmh SW 4.0 mph6.4 kmh 30.18 in1022.0 mb 0.00 in0.0 mm 0.00 in0.0 mm 0.00 in0.0 mm
03:15 PM 31.3°F-0.4°C 24.3°F-4.3°C 75% 1.0 mph SSW1.6 kmh SSW 3.0 mph4.8 kmh 30.19 in1022.4 mb 0.00 in0.0 mm 0.00 in0.0 mm 0.00 in0.0 mm
03:30 PM 31.4°F-0.3°C 24.7°F-4.1°C 76% 1.0 mph SW1.6 kmh SW 4.0 mph6.4 kmh 30.19 in1022.4 mb 0.00 in0.0 mm 0.00 in0.0 mm 0.00 in0.0 mm
03:45 PM 31.2°F-0.4°C 24.8°F-4.0°C 77% 2.0 mph SE3.2 kmh SE 4.0 mph6.4 kmh 30.18 in1022.0 mb 0.00 in0.0 mm 0.00 in0.0 mm 0.00 in0.0 mm
04:00 PM 30.9°F-0.6°C 24.8°F-4.0°C 78% 1.0 mph SSE1.6 kmh SSE 4.0 mph6.4 kmh 30.18 in1022.0 mb 0.00 in0.0 mm 0.00 in0.0 mm 0.00 in0.0 mm
04:15 PM 30.6°F-0.8°C 24.9°F-3.9°C 79% 1.0 mph SSE1.6 kmh SSE 2.0 mph3.2 kmh 30.18 in1022.0 mb 0.00 in0.0 mm 0.00 in0.0 mm 0.00 in0.0 mm
04:30 PM 30.3°F-0.9°C 24.9°F-3.9°C 80% 1.0 mph SSW1.6 kmh SSW 3.0 mph4.8 kmh 30.18 in1022.0 mb 0.00 in0.0 mm 0.00 in0.0 mm 0.00 in0.0 mm
04:45 PM 30.3°F-0.9°C 25.2°F-3.8°C 81% Calm Calm 2.0 mph3.2 kmh 30.18 in1022.0 mb 0.00 in0.0 mm 0.00 in0.0 mm 0.00 in0.0 mm
05:00 PM 30.6°F-0.8°C 25.5°F-3.6°C 81% 1.0 mph S1.6 kmh S 3.0 mph4.8 kmh 30.18 in1022.0 mb 0.00 in0.0 mm 0.00 in0.0 mm 0.00 in0.0 mm
05:15 PM 30.8°F-0.7°C 25.7°F-3.5°C 81% 1.0 mph SE1.6 kmh SE 3.0 mph4.8 kmh 30.19 in1022.4 mb 0.00 in0.0 mm 0.00 in0.0 mm 0.00 in0.0 mm
05:30 PM 31.0°F-0.6°C 26.1°F-3.3°C 82% 1.0 mph SSE1.6 kmh SSE 4.0 mph6.4 kmh 30.19 in1022.4 mb 0.00 in0.0 mm 0.00 in0.0 mm 0.00 in0.0 mm
05:45 PM 31.1°F-0.5°C 26.5°F-3.1°C 83% 1.0 mph SE1.6 kmh SE 3.0 mph4.8 kmh 30.19 in1022.4 mb 0.00 in0.0 mm 0.00 in0.0 mm 0.00 in0.0 mm
06:00 PM 31.2°F-0.4°C 26.6°F-3.0°C 83% 1.0 mph SSE1.6 kmh SSE 2.0 mph3.2 kmh 30.19 in1022.4 mb 0.00 in0.0 mm 0.00 in0.0 mm 0.00 in0.0 mm
06:15 PM 31.5°F-0.3°C 26.9°F-2.8°C 83% 1.0 mph SE1.6 kmh SE 5.0 mph8.0 kmh 30.20 in1022.7 mb 0.00 in0.0 mm 0.00 in0.0 mm 0.00 in0.0 mm
06:30 PM 31.7°F-0.2°C 27.4°F-2.6°C 84% 1.0 mph S1.6 kmh S 4.0 mph6.4 kmh 30.20 in1022.7 mb 0.00 in0.0 mm 0.00 in0.0 mm 0.00 in0.0 mm
06:45 PM 31.7°F-0.2°C 27.4°F-2.6°C 84% 1.0 mph SSE1.6 kmh SSE 4.0 mph6.4 kmh 30.19 in1022.4 mb 0.00 in0.0 mm 0.00 in0.0 mm 0.00 in0.0 mm
07:00 PM 31.8°F-0.1°C 27.5°F-2.5°C 84% 1.0 mph SSE1.6 kmh SSE 3.0 mph4.8 kmh 30.19 in1022.4 mb 0.00 in0.0 mm 0.00 in0.0 mm 0.00 in0.0 mm
07:15 PM 31.8°F-0.1°C 27.5°F-2.5°C 84% 1.0 mph SE1.6 kmh SE 2.0 mph3.2 kmh 30.18 in1022.0 mb 0.00 in0.0 mm 0.00 in0.0 mm 0.00 in0.0 mm
07:30 PM 31.8°F-0.1°C 27.5°F-2.5°C 84% 1.0 mph SSE1.6 kmh SSE 3.0 mph4.8 kmh 30.18 in1022.0 mb 0.00 in0.0 mm 0.00 in0.0 mm 0.00 in0.0 mm
07:45 PM 31.7°F-0.2°C 27.7°F-2.4°C 85% 1.0 mph SE1.6 kmh SE 2.0 mph3.2 kmh 30.18 in1022.0 mb 0.00 in0.0 mm 0.00 in0.0 mm 0.00 in0.0 mm
08:00 PM 31.8°F-0.1°C 27.8°F-2.3°C 85% 1.0 mph S1.6 kmh S 2.0 mph3.2 kmh 30.17 in1021.7 mb 0.00 in0.0 mm 0.00 in0.0 mm 0.00 in0.0 mm
08:15 PM 31.5°F-0.3°C 27.5°F-2.5°C 85% 1.0 mph SSE1.6 kmh SSE 2.0 mph3.2 kmh 30.17 in1021.7 mb 0.00 in0.0 mm 0.00 in0.0 mm 0.00 in0.0 mm
08:30 PM 31.2°F-0.4°C 27.5°F-2.5°C 86% 1.0 mph SE1.6 kmh SE 2.0 mph3.2 kmh 30.17 in1021.7 mb 0.00 in0.0 mm 0.00 in0.0 mm 0.00 in0.0 mm
08:45 PM 30.9°F-0.6°C 27.5°F-2.5°C 87% 1.0 mph SSE1.6 kmh SSE 2.0 mph3.2 kmh 30.17 in1021.7 mb 0.00 in0.0 mm 0.00 in0.0 mm 0.00 in0.0 mm
09:00 PM 30.8°F-0.7°C 27.7°F-2.4°C 88% 1.0 mph S1.6 kmh S 3.0 mph4.8 kmh 30.17 in1021.7 mb 0.00 in0.0 mm 0.00 in0.0 mm 0.00 in0.0 mm
09:15 PM 30.6°F-0.8°C 27.7°F-2.4°C 89% 1.0 mph SSE1.6 kmh SSE 3.0 mph4.8 kmh 30.16 in1021.3 mb 0.00 in0.0 mm 0.00 in0.0 mm 0.00 in0.0 mm
09:30 PM 30.5°F-0.8°C 27.6°F-2.4°C 89% 1.0 mph SE1.6 kmh SE 2.0 mph3.2 kmh 30.16 in1021.3 mb 0.00 in0.0 mm 0.00 in0.0 mm 0.00 in0.0 mm
09:45 PM 30.2°F-1.0°C 27.6°F-2.4°C 90% Calm Calm 2.0 mph3.2 kmh 30.17 in1021.7 mb 0.00 in0.0 mm 0.00 in0.0 mm 0.00 in0.0 mm
10:00 PM 30.1°F-1.1°C 27.5°F-2.5°C 90% Calm Calm 2.0 mph3.2 kmh 30.17 in1021.7 mb 0.00 in0.0 mm 0.00 in0.0 mm 0.00 in0.0 mm
10:15 PM 29.9°F-1.2°C 27.6°F-2.4°C 91% 1.0 mph SE1.6 kmh SE 2.0 mph3.2 kmh 30.17 in1021.7 mb 0.00 in0.0 mm 0.00 in0.0 mm 0.00 in0.0 mm
10:30 PM 29.7°F-1.3°C 27.4°F-2.6°C 91% Calm Calm 2.0 mph3.2 kmh 30.17 in1021.7 mb 0.00 in0.0 mm 0.00 in0.0 mm 0.00 in0.0 mm
10:45 PM 29.7°F-1.3°C 27.7°F-2.4°C 92% Calm Calm 2.0 mph3.2 kmh 30.17 in1021.7 mb 0.00 in0.0 mm 0.00 in0.0 mm 0.00 in0.0 mm
11:00 PM 29.7°F-1.3°C 27.7°F-2.4°C 92% Calm Calm 1.0 mph1.6 kmh 30.16 in1021.3 mb 0.00 in0.0 mm 0.00 in0.0 mm 0.00 in0.0 mm
11:15 PM 29.4°F-1.4°C 27.4°F-2.6°C 92% Calm Calm 2.0 mph3.2 kmh 30.17 in1021.7 mb 0.00 in0.0 mm 0.00 in0.0 mm 0.00 in0.0 mm
11:30 PM 29.4°F-1.4°C 27.4°F-2.6°C 92% 1.0 mph SE1.6 kmh SE 2.0 mph3.2 kmh 30.16 in1021.3 mb 0.00 in0.0 mm 0.00 in0.0 mm 0.00 in0.0 mm
11:45 PM 29.3°F-1.5°C 27.3°F-2.6°C 92% 1.0 mph SE1.6 kmh SE 2.0 mph3.2 kmh 30.15 in1021.0 mb 0.00 in0.0 mm 0.00 in0.0 mm 0.00 in0.0 mm